createdAt,value
2022-11-09T00:01:20.933Z,2.55
2022-11-09T00:03:47.921Z,1.80
2022-11-09T00:06:14.356Z,1.50
2022-11-09T00:08:41.156Z,2.03
2022-11-09T00:11:08.794Z,1.63
2022-11-09T00:13:35.983Z,1.80
2022-11-09T00:16:02.589Z,2.92
2022-11-09T00:18:29.655Z,4.78
2022-11-09T00:20:56.244Z,1.77
2022-11-09T00:23:23.009Z,1.80
2022-11-09T00:25:49.748Z,1.83
2022-11-09T00:28:16.149Z,6.43
2022-11-09T00:30:42.648Z,3.28
2022-11-09T00:33:11.114Z,2.88
2022-11-09T00:35:38.883Z,2.08
2022-11-09T00:38:05.432Z,2.50
2022-11-09T00:40:31.887Z,1.30
2022-11-09T00:42:58.336Z,1.55
2022-11-09T00:45:24.809Z,1.30
2022-11-09T00:47:51.368Z,4.05
2022-11-09T00:50:17.825Z,1.42
2022-11-09T00:52:44.768Z,1.95
2022-11-09T00:55:11.612Z,1.83
2022-11-09T00:57:38.248Z,1.83
2022-11-09T01:00:05.338Z,2.33
2022-11-09T01:02:31.867Z,1.70
2022-11-09T01:04:59.989Z,1.45
2022-11-09T01:07:26.562Z,3.20
2022-11-09T01:09:53.040Z,1.60
2022-11-09T01:12:19.590Z,2.50
2022-11-09T01:14:46.048Z,2.92
2022-11-09T01:17:12.519Z,3.80
2022-11-09T01:19:38.941Z,1.75
2022-11-09T01:22:05.414Z,1.65
2022-11-09T01:24:31.875Z,2.20
2022-11-09T01:26:58.324Z,2.22
2022-11-09T01:29:24.807Z,1.30
2022-11-09T01:31:51.371Z,2.95
2022-11-09T01:34:34.205Z,2.33
2022-11-09T01:37:02.052Z,1.90
2022-11-09T01:39:29.865Z,2.70
2022-11-09T01:41:56.395Z,3.03
2022-11-09T01:44:22.890Z,2.35
2022-11-09T01:46:51.869Z,1.88
2022-11-09T01:49:31.660Z,2.70
2022-11-09T01:52:16.232Z,1.30
2022-11-09T01:54:45.780Z,1.70
2022-11-09T01:57:17.010Z,4.57
2022-11-09T01:59:47.108Z,2.03
2022-11-09T02:02:13.700Z,1.90
2022-11-09T02:04:44.845Z,2.53
2022-11-09T02:07:11.426Z,2.45
2022-11-09T02:09:43.818Z,2.00
2022-11-09T02:12:10.477Z,2.25
2022-11-09T02:14:37.877Z,2.67
2022-11-09T02:17:04.924Z,1.98
2022-11-09T02:19:31.528Z,3.72
2022-11-09T02:21:58.068Z,2.88
2022-11-09T02:24:24.723Z,3.13
2022-11-09T02:26:52.233Z,1.95
2022-11-09T02:29:20.732Z,3.85
2022-11-09T02:31:49.346Z,4.25
2022-11-09T02:34:17.620Z,7.00
2022-11-09T02:36:44.516Z,2.60
2022-11-09T02:39:18.059Z,1.85
2022-11-09T02:41:47.994Z,3.28
2022-11-09T02:44:15.651Z,1.23
2022-11-09T02:46:42.164Z,3.35
2022-11-09T02:49:08.825Z,4.35
2022-11-09T02:51:35.977Z,4.68
2022-11-09T02:54:02.695Z,3.33
2022-11-09T02:56:29.424Z,4.55
2022-11-09T02:58:56.012Z,3.42
2022-11-09T03:01:22.567Z,2.92
2022-11-09T03:03:49.331Z,2.83
2022-11-09T03:06:16.084Z,3.58
2022-11-09T03:08:44.907Z,3.60
2022-11-09T03:11:11.583Z,1.90
2022-11-09T03:13:38.348Z,3.28
2022-11-09T03:16:08.364Z,4.70
2022-11-09T03:18:38.198Z,3.58
2022-11-09T03:21:05.376Z,2.75
2022-11-09T03:23:32.603Z,4.40
2022-11-09T03:26:00.060Z,2.28
2022-11-09T03:28:29.557Z,3.70
2022-11-09T03:30:57.057Z,3.28
2022-11-09T03:33:23.803Z,3.03
2022-11-09T03:35:51.406Z,4.35
2022-11-09T03:38:18.883Z,2.95
2022-11-09T03:40:50.485Z,3.38
2022-11-09T03:43:17.182Z,5.38
2022-11-09T03:45:44.133Z,3.17
2022-11-09T03:48:10.535Z,4.40
2022-11-09T03:50:40.475Z,5.47
2022-11-09T03:53:10.523Z,3.80
2022-11-09T03:55:37.706Z,2.92
2022-11-09T03:58:04.792Z,3.45
2022-11-09T04:00:31.522Z,4.38
2022-11-09T04:02:59.029Z,2.45
2022-11-09T04:05:25.859Z,3.03
2022-11-09T04:07:53.509Z,4.22
2022-11-09T04:10:20.365Z,4.00
2022-11-09T04:12:46.784Z,3.85
2022-11-09T04:15:13.735Z,3.42
2022-11-09T04:17:40.463Z,4.03
2022-11-09T04:20:07.767Z,4.07
2022-11-09T04:22:34.241Z,4.80
2022-11-09T04:25:00.699Z,4.78
2022-11-09T04:27:27.205Z,3.53
2022-11-09T04:29:53.641Z,2.70
2022-11-09T04:32:20.083Z,2.92
2022-11-09T04:34:46.503Z,4.68
2022-11-09T04:37:14.038Z,2.97
2022-11-09T04:39:40.469Z,3.97
2022-11-09T04:42:06.982Z,3.90
2022-11-09T04:44:33.409Z,2.22
2022-11-09T04:46:59.898Z,7.00
2022-11-09T04:49:26.322Z,4.28
2022-11-09T04:51:52.864Z,3.75
2022-11-09T04:54:19.331Z,3.40
2022-11-09T04:56:45.801Z,2.60
2022-11-09T04:59:12.368Z,4.60
2022-11-09T05:01:38.775Z,4.43
2022-11-09T05:04:05.294Z,1.92
2022-11-09T05:06:31.812Z,3.88
2022-11-09T05:08:59.471Z,2.33
2022-11-09T05:11:25.980Z,2.72
2022-11-09T05:13:52.754Z,3.30
2022-11-09T05:16:19.719Z,5.03
2022-11-09T05:18:46.459Z,4.18
2022-11-09T05:21:13.391Z,5.53
2022-11-09T05:23:58.232Z,3.58
2022-11-09T05:26:31.052Z,4.82
2022-11-09T05:28:59.130Z,3.80
2022-11-09T05:31:26.101Z,6.57
2022-11-09T05:33:52.926Z,4.80
2022-11-09T05:36:19.783Z,4.22
2022-11-09T05:38:46.478Z,4.88
2022-11-09T05:41:13.117Z,5.57
2022-11-09T05:43:39.648Z,4.78
2022-11-09T05:46:06.859Z,4.57
2022-11-09T05:48:33.465Z,3.60
2022-11-09T05:51:03.797Z,5.40
2022-11-09T05:53:30.812Z,6.80
2022-11-09T05:56:01.348Z,5.38
2022-11-09T05:58:27.883Z,6.95
2022-11-09T06:00:54.373Z,5.10
2022-11-09T06:03:22.025Z,6.90
2022-11-09T06:05:48.726Z,3.75
2022-11-09T06:08:15.259Z,4.85
2022-11-09T06:10:44.894Z,4.68
2022-11-09T06:13:11.373Z,5.15
2022-11-09T06:15:37.814Z,5.32
2022-11-09T06:18:04.413Z,5.32
2022-11-09T06:20:32.394Z,6.55
2022-11-09T06:23:03.040Z,3.42
2022-11-09T06:25:31.612Z,4.50
2022-11-09T06:27:58.365Z,3.58
2022-11-09T06:30:24.872Z,3.15
2022-11-09T06:32:51.383Z,4.43
2022-11-09T06:35:17.920Z,3.42
2022-11-09T06:37:44.457Z,3.30
2022-11-09T06:40:12.617Z,2.78
2022-11-09T06:42:39.173Z,2.70
2022-11-09T06:45:05.870Z,3.65
2022-11-09T06:47:32.362Z,2.95
2022-11-09T06:49:58.806Z,4.05
2022-11-09T06:52:25.989Z,4.22
2022-11-09T06:54:52.429Z,4.95
2022-11-09T06:57:18.897Z,4.28
2022-11-09T06:59:45.346Z,2.97
2022-11-09T07:02:14.870Z,5.50
2022-11-09T07:04:41.315Z,3.20
2022-11-09T07:07:07.845Z,5.07
2022-11-09T07:09:34.456Z,2.30
2022-11-09T07:12:04.151Z,3.75
2022-11-09T07:14:30.732Z,3.03
2022-11-09T07:16:59.897Z,5.28
2022-11-09T07:19:26.468Z,3.08
2022-11-09T07:21:53.180Z,1.98
2022-11-09T07:24:20.218Z,3.05
2022-11-09T07:26:47.587Z,3.45
2022-11-09T07:29:15.231Z,3.03
2022-11-09T07:31:41.895Z,2.72
2022-11-09T07:34:08.849Z,4.40
2022-11-09T07:36:36.937Z,3.35
2022-11-09T07:39:03.782Z,4.82
2022-11-09T07:41:37.785Z,3.15
2022-11-09T07:44:04.563Z,4.57
2022-11-09T07:46:32.511Z,3.92
2022-11-09T07:48:59.051Z,1.83
2022-11-09T07:51:25.643Z,3.53
2022-11-09T07:53:52.214Z,3.83
2022-11-09T07:56:18.835Z,3.95
2022-11-09T07:58:45.423Z,2.50
2022-11-09T08:01:12.075Z,2.53
2022-11-09T08:03:40.598Z,4.60
2022-11-09T08:06:11.066Z,4.53
2022-11-09T08:08:41.264Z,4.13
2022-11-09T08:11:07.754Z,6.75
2022-11-09T08:13:34.978Z,4.00
2022-11-09T08:16:02.943Z,3.17
2022-11-09T08:18:29.853Z,4.03
2022-11-09T08:20:57.991Z,6.28
2022-11-09T08:23:27.134Z,3.88
2022-11-09T08:25:53.684Z,5.20
2022-11-09T08:28:22.920Z,3.90
2022-11-09T08:30:57.746Z,3.33
2022-11-09T08:33:25.008Z,5.75
2022-11-09T08:35:53.338Z,4.95
2022-11-09T08:38:20.509Z,4.50
2022-11-09T08:40:48.328Z,4.47
2022-11-09T08:43:14.904Z,4.15
2022-11-09T08:45:43.649Z,3.10
2022-11-09T08:48:10.578Z,4.93
2022-11-09T08:50:37.330Z,5.05
2022-11-09T08:53:04.329Z,3.00
2022-11-09T08:55:31.306Z,5.38
2022-11-09T08:58:02.161Z,3.42
2022-11-09T09:00:29.061Z,3.67
2022-11-09T09:02:58.543Z,4.22
2022-11-09T09:05:27.747Z,5.72
2022-11-09T09:07:55.420Z,3.22
2022-11-09T09:10:21.861Z,5.65
2022-11-09T09:12:48.530Z,7.35
2022-11-09T09:15:15.020Z,4.15
2022-11-09T09:17:41.449Z,3.95
2022-11-09T09:20:09.641Z,5.43
2022-11-09T09:22:36.532Z,5.43
2022-11-09T09:25:03.936Z,4.57
2022-11-09T09:27:32.758Z,5.55
2022-11-09T09:29:59.370Z,3.90
2022-11-09T09:32:30.024Z,4.38
2022-11-09T09:34:57.259Z,2.33
2022-11-09T09:37:26.632Z,2.42
2022-11-09T09:39:54.416Z,6.35
2022-11-09T09:42:24.079Z,4.20
2022-11-09T09:44:53.661Z,3.80
2022-11-09T09:47:23.822Z,3.13
2022-11-09T09:50:03.987Z,5.25
2022-11-09T09:53:04.721Z,3.70
2022-11-09T09:55:40.970Z,2.33
2022-11-09T09:58:13.986Z,2.63
2022-11-09T10:00:44.219Z,3.33
2022-11-09T10:03:17.472Z,3.47
2022-11-09T10:05:45.553Z,3.50
2022-11-09T10:08:30.707Z,4.53
2022-11-09T10:11:00.331Z,6.10
2022-11-09T10:13:39.230Z,3.08
2022-11-09T10:16:24.548Z,4.35
2022-11-09T10:18:54.057Z,5.90
2022-11-09T10:21:36.093Z,8.85
2022-11-09T10:24:05.827Z,5.05
2022-11-09T10:26:46.769Z,4.63
2022-11-09T10:29:24.215Z,6.95
2022-11-09T10:31:54.925Z,2.50
2022-11-09T10:34:29.864Z,2.90
2022-11-09T10:37:15.288Z,5.68
2022-11-09T10:40:11.242Z,5.40
2022-11-09T10:43:00.823Z,4.72
2022-11-09T10:45:57.090Z,4.53
2022-11-09T10:48:43.964Z,4.55
2022-11-09T10:51:55.457Z,3.30
2022-11-09T10:54:40.698Z,4.13
2022-11-09T10:57:25.858Z,3.92
2022-11-09T11:00:20.796Z,6.25
2022-11-09T11:03:16.064Z,7.68
2022-11-09T11:06:02.812Z,2.88
2022-11-09T11:08:49.202Z,3.03
2022-11-09T11:11:37.051Z,4.78
2022-11-09T11:14:41.871Z,3.45
2022-11-09T11:17:30.823Z,3.15
2022-11-09T11:20:35.373Z,3.53
2022-11-09T11:23:21.959Z,3.38
2022-11-09T11:26:16.269Z,2.83
2022-11-09T11:29:04.416Z,3.47
2022-11-09T11:31:49.551Z,7.88
2022-11-09T11:34:58.522Z,4.60
2022-11-09T11:38:00.582Z,7.78
2022-11-09T11:41:13.740Z,9.35
2022-11-09T11:43:58.400Z,3.22
2022-11-09T11:46:48.361Z,3.22
2022-11-09T11:49:38.672Z,3.45
2022-11-09T11:52:23.470Z,7.75
2022-11-09T11:55:27.391Z,4.88
2022-11-09T11:58:18.289Z,5.30
2022-11-09T12:01:09.267Z,4.15
2022-11-09T12:04:12.820Z,6.03
2022-11-09T12:07:06.765Z,6.03
2022-11-09T12:09:59.456Z,3.85
2022-11-09T12:12:54.599Z,4.75
2022-11-09T12:15:54.959Z,4.18
2022-11-09T12:19:01.021Z,4.82
2022-11-09T12:22:04.742Z,7.18
2022-11-09T12:25:10.636Z,4.78
2022-11-09T12:28:15.239Z,5.07
2022-11-09T12:31:19.444Z,4.95
2022-11-09T12:34:09.348Z,3.17
2022-11-09T12:37:05.120Z,4.72
2022-11-09T12:39:53.377Z,5.88
2022-11-09T12:42:47.409Z,5.68
2022-11-09T12:45:32.715Z,7.15
2022-11-09T12:48:29.028Z,4.95
2022-11-09T12:51:17.146Z,6.10
2022-11-09T12:54:11.146Z,5.15
2022-11-09T12:57:01.442Z,5.38
2022-11-09T12:59:53.699Z,6.32
2022-11-09T13:02:42.728Z,5.03
2022-11-09T13:05:37.005Z,3.92
2022-11-09T13:08:29.777Z,5.53
2022-11-09T13:11:19.753Z,4.90
2022-11-09T13:14:30.503Z,8.40
2022-11-09T13:17:27.619Z,7.05
2022-11-09T13:20:53.240Z,6.25
2022-11-09T13:24:01.563Z,4.80
2022-11-09T13:26:50.644Z,6.15
2022-11-09T13:29:41.628Z,6.00
2022-11-09T13:32:26.756Z,4.25
2022-11-09T13:35:31.007Z,3.83
2022-11-09T13:38:24.772Z,5.90
2022-11-09T13:41:28.397Z,4.72
2022-11-09T13:44:28.122Z,6.97
2022-11-09T13:47:27.802Z,8.00
2022-11-09T13:50:21.942Z,6.20
2022-11-09T13:53:34.023Z,5.80
2022-11-09T13:56:33.438Z,5.63
2022-11-09T13:59:52.425Z,5.20
2022-11-09T14:02:37.549Z,7.03
2022-11-09T14:05:27.319Z,6.35
2022-11-09T14:08:28.197Z,5.32
2022-11-09T14:11:24.358Z,9.73
2022-11-09T14:14:16.673Z,6.25
2022-11-09T14:17:20.392Z,4.45
2022-11-09T14:20:22.336Z,4.22
2022-11-09T14:23:17.591Z,4.32
2022-11-09T14:26:10.145Z,4.75
2022-11-09T14:28:55.619Z,4.05
2022-11-09T14:31:45.399Z,3.17
2022-11-09T14:34:35.924Z,4.40
2022-11-09T14:37:23.951Z,5.55
2022-11-09T14:40:20.986Z,5.70
2022-11-09T14:43:15.511Z,6.38
2022-11-09T14:46:04.846Z,5.00
2022-11-09T14:48:51.848Z,4.78
2022-11-09T14:51:38.555Z,4.43
2022-11-09T14:54:25.665Z,5.85
2022-11-09T14:57:17.207Z,4.80
2022-11-09T15:00:03.058Z,4.10
2022-11-09T15:02:49.298Z,5.97
2022-11-09T15:05:41.670Z,4.13
2022-11-09T15:08:26.910Z,5.07
2022-11-09T15:11:12.177Z,5.55
2022-11-09T15:13:57.769Z,5.75
2022-11-09T15:16:43.026Z,2.55
2022-11-09T15:19:37.766Z,5.18
2022-11-09T15:22:41.799Z,5.78
2022-11-09T15:25:51.792Z,4.72
2022-11-09T15:28:44.317Z,5.82
2022-11-09T15:31:31.404Z,5.78
2022-11-09T15:34:31.995Z,6.32
2022-11-09T15:37:28.482Z,6.30
2022-11-09T15:40:14.799Z,5.95
2022-11-09T15:42:59.810Z,7.07
2022-11-09T15:45:44.766Z,6.15
2022-11-09T15:48:29.781Z,11.10
2022-11-09T15:51:15.428Z,7.75
2022-11-09T15:54:00.157Z,6.88
2022-11-09T15:56:45.700Z,7.18
2022-11-09T15:59:32.635Z,8.68
2022-11-09T16:02:19.038Z,8.88
2022-11-09T16:05:04.421Z,6.00
2022-11-09T16:07:50.379Z,4.28
2022-11-09T16:10:38.848Z,5.47
2022-11-09T16:13:23.725Z,5.75
2022-11-09T16:16:09.205Z,5.63
2022-11-09T16:18:54.790Z,6.35
2022-11-09T16:21:41.773Z,7.85
2022-11-09T16:24:26.584Z,4.70
2022-11-09T16:27:17.090Z,4.45
2022-11-09T16:30:08.745Z,4.88
2022-11-09T16:32:54.131Z,4.85
2022-11-09T16:35:39.637Z,4.85
2022-11-09T16:38:24.653Z,5.10
2022-11-09T16:41:11.252Z,6.55
2022-11-09T16:43:56.447Z,5.68
2022-11-09T16:46:43.265Z,7.38
2022-11-09T16:49:28.432Z,5.00
2022-11-09T16:52:13.439Z,4.80
2022-11-09T16:54:58.505Z,4.22
2022-11-09T16:57:46.203Z,4.95
2022-11-09T17:00:49.086Z,4.72
2022-11-09T17:03:37.617Z,5.55
2022-11-09T17:06:22.438Z,5.43
2022-11-09T17:09:07.350Z,3.58
2022-11-09T17:11:52.985Z,4.43
2022-11-09T17:14:38.230Z,6.47
2022-11-09T17:17:23.986Z,7.47
2022-11-09T17:20:10.184Z,6.25
2022-11-09T17:22:55.563Z,5.35
2022-11-09T17:25:41.097Z,4.95
2022-11-09T17:28:26.445Z,4.22
2022-11-09T17:31:15.782Z,5.40
2022-11-09T17:34:01.513Z,5.50
2022-11-09T17:37:03.773Z,5.50
2022-11-09T17:39:49.566Z,5.75
2022-11-09T17:42:35.767Z,5.07
2022-11-09T17:45:21.006Z,6.25
2022-11-09T17:48:06.887Z,7.68
2022-11-09T17:50:52.187Z,7.35
2022-11-09T17:53:37.832Z,6.00
2022-11-09T17:56:24.112Z,8.38
2022-11-09T17:59:09.296Z,5.78
2022-11-09T18:01:58.752Z,5.55
2022-11-09T18:04:43.989Z,6.72
2022-11-09T18:07:31.133Z,7.65
2022-11-09T18:10:17.303Z,5.10
2022-11-09T18:13:03.931Z,4.97
2022-11-09T18:15:51.330Z,3.58
2022-11-09T18:18:36.731Z,5.50
2022-11-09T18:21:23.419Z,4.70
2022-11-09T18:24:10.642Z,5.38
2022-11-09T18:26:55.801Z,3.72
2022-11-09T18:29:41.518Z,4.53
2022-11-09T18:32:26.536Z,6.63
2022-11-09T18:35:11.846Z,5.18
2022-11-09T18:37:56.849Z,3.97
2022-11-09T18:40:42.014Z,4.18
2022-11-09T18:43:27.105Z,4.72
2022-11-09T18:46:13.836Z,3.63
2022-11-09T18:48:59.541Z,3.35
2022-11-09T18:51:44.954Z,4.78
2022-11-09T18:54:31.581Z,6.80
2022-11-09T18:57:19.859Z,4.90
2022-11-09T19:00:08.066Z,5.05
2022-11-09T19:02:53.061Z,5.90
2022-11-09T19:05:44.117Z,5.03
2022-11-09T19:08:48.584Z,5.95
2022-11-09T19:11:33.585Z,4.40
2022-11-09T19:14:18.712Z,8.20
2022-11-09T19:17:03.775Z,8.70
2022-11-09T19:19:48.654Z,5.18
2022-11-09T19:22:35.124Z,4.88
2022-11-09T19:25:22.753Z,6.88
2022-11-09T19:28:07.708Z,7.65
2022-11-09T19:30:52.629Z,4.60
2022-11-09T19:33:37.726Z,7.35
2022-11-09T19:36:30.717Z,8.48
2022-11-09T19:39:16.713Z,6.28
2022-11-09T19:42:01.961Z,5.22
2022-11-09T19:44:53.610Z,5.80
2022-11-09T19:47:41.860Z,7.22
2022-11-09T19:50:27.054Z,6.80
2022-11-09T19:53:14.741Z,5.68
2022-11-09T19:56:11.844Z,5.82
2022-11-09T19:58:58.256Z,4.28
2022-11-09T20:01:44.850Z,6.45
2022-11-09T20:04:34.119Z,5.05
2022-11-09T20:07:21.564Z,9.65
2022-11-09T20:10:08.944Z,4.57
2022-11-09T20:12:55.486Z,6.90
2022-11-09T20:15:40.381Z,4.97
2022-11-09T20:18:25.523Z,6.28
2022-11-09T20:21:10.543Z,8.90
2022-11-09T20:23:55.745Z,7.10
2022-11-09T20:26:43.547Z,5.28
2022-11-09T20:29:31.361Z,7.20
2022-11-09T20:32:21.331Z,5.68
2022-11-09T20:35:07.390Z,6.28
2022-11-09T20:37:52.766Z,6.18
2022-11-09T20:40:37.937Z,7.50
2022-11-09T20:43:23.345Z,7.40
2022-11-09T20:46:17.181Z,5.18
2022-11-09T20:49:03.901Z,6.72
2022-11-09T20:51:49.611Z,4.25
2022-11-09T20:54:35.309Z,9.57
2022-11-09T20:57:20.248Z,5.63
2022-11-09T21:00:05.543Z,4.93
2022-11-09T21:02:50.300Z,6.30
2022-11-09T21:05:35.257Z,7.80
2022-11-09T21:08:20.712Z,8.10
2022-11-09T21:11:07.691Z,8.40
2022-11-09T21:13:53.492Z,5.85
2022-11-09T21:16:39.703Z,3.97
2022-11-09T21:19:24.947Z,4.97
2022-11-09T21:22:10.112Z,6.15
2022-11-09T21:25:14.279Z,5.65
2022-11-09T21:28:35.135Z,5.13
2022-11-09T21:31:20.281Z,8.90
2022-11-09T21:34:05.419Z,7.85
2022-11-09T21:36:50.244Z,6.47
2022-11-09T21:39:35.830Z,7.28
2022-11-09T21:42:23.435Z,7.55
2022-11-09T21:45:08.653Z,7.25
2022-11-09T21:47:54.527Z,8.30
2022-11-09T21:50:39.955Z,7.60
2022-11-09T21:53:25.294Z,5.78
2022-11-09T21:56:10.506Z,7.03
2022-11-09T21:58:55.789Z,8.75
2022-11-09T22:01:41.064Z,6.60
2022-11-09T22:04:26.413Z,8.02
2022-11-09T22:07:11.514Z,5.57
2022-11-09T22:10:09.790Z,3.85
2022-11-09T22:13:14.474Z,7.43
2022-11-09T22:16:09.956Z,5.30
2022-11-09T22:19:13.999Z,8.05
2022-11-09T22:21:59.054Z,7.00
2022-11-09T22:24:44.645Z,4.55
2022-11-09T22:27:31.475Z,8.38
2022-11-09T22:30:16.770Z,9.82
2022-11-09T22:33:02.009Z,5.85
2022-11-09T22:35:53.247Z,6.50
2022-11-09T22:38:38.368Z,4.97
2022-11-09T22:41:26.598Z,6.18
2022-11-09T22:44:14.147Z,6.35
2022-11-09T22:46:59.578Z,5.97
2022-11-09T22:49:45.823Z,6.90
2022-11-09T22:52:31.076Z,7.00
2022-11-09T22:55:18.322Z,6.53
2022-11-09T22:58:03.110Z,10.07
2022-11-09T23:00:48.001Z,6.38
2022-11-09T23:03:35.947Z,7.20
2022-11-09T23:06:21.769Z,10.45
2022-11-09T23:09:08.268Z,5.43
2022-11-09T23:11:53.265Z,4.95
2022-11-09T23:14:57.255Z,6.68
2022-11-09T23:18:00.802Z,8.18
2022-11-09T23:20:45.808Z,7.63
2022-11-09T23:23:33.294Z,7.97
2022-11-09T23:26:19.218Z,9.88
2022-11-09T23:29:04.344Z,9.50
2022-11-09T23:31:49.233Z,12.57
2022-11-09T23:34:34.037Z,6.40
2022-11-09T23:37:20.207Z,8.07
2022-11-09T23:40:05.651Z,10.27
2022-11-09T23:42:50.755Z,10.60
2022-11-09T23:45:38.783Z,7.47
2022-11-09T23:48:23.868Z,8.35
2022-11-09T23:51:09.294Z,8.48
2022-11-09T23:53:54.153Z,8.55
2022-11-09T23:56:39.226Z,7.38
2022-11-09T23:59:24.641Z,9.38
